createdAt,value
2023-03-15T00:01:54.609Z,4.00
2023-03-15T00:04:21.784Z,3.90
2023-03-15T00:06:48.945Z,3.90
2023-03-15T00:09:16.289Z,3.80
2023-03-15T00:11:43.756Z,3.80
2023-03-15T00:14:10.967Z,3.80
2023-03-15T00:16:38.149Z,3.80
2023-03-15T00:19:05.504Z,3.80
2023-03-15T00:21:33.155Z,3.90
2023-03-15T00:24:00.364Z,3.80
2023-03-15T00:26:28.049Z,3.90
2023-03-15T00:28:55.439Z,3.70
2023-03-15T00:31:25.572Z,3.80
2023-03-15T00:33:56.480Z,3.90
2023-03-15T00:36:25.397Z,3.80
2023-03-15T00:38:54.197Z,3.70
2023-03-15T00:41:22.764Z,3.90
2023-03-15T00:43:50.185Z,3.80
2023-03-15T00:46:19.248Z,3.70
2023-03-15T00:48:51.669Z,3.70
2023-03-15T00:51:21.592Z,3.70
2023-03-15T00:53:50.377Z,3.80
2023-03-15T00:56:23.391Z,3.80
2023-03-15T00:58:55.064Z,3.80
2023-03-15T01:01:28.550Z,3.70
2023-03-15T01:03:56.299Z,3.60
2023-03-15T01:06:26.583Z,3.70
2023-03-15T01:08:56.161Z,3.60
2023-03-15T01:11:26.411Z,3.70
2023-03-15T01:13:55.624Z,3.60
2023-03-15T01:16:23.081Z,3.70
2023-03-15T01:18:51.840Z,3.60
2023-03-15T01:21:19.606Z,3.60
2023-03-15T01:23:46.950Z,3.50
2023-03-15T01:26:15.478Z,3.50
2023-03-15T01:28:43.457Z,3.60
2023-03-15T01:31:31.479Z,3.60
2023-03-15T01:33:59.656Z,3.60
2023-03-15T01:36:27.352Z,3.40
2023-03-15T01:38:55.313Z,3.40
2023-03-15T01:41:24.996Z,3.40
2023-03-15T01:43:52.207Z,3.40
2023-03-15T01:46:29.614Z,3.50
2023-03-15T01:49:14.130Z,3.50
2023-03-15T01:51:58.731Z,3.30
2023-03-15T01:54:34.110Z,3.40
2023-03-15T01:57:09.733Z,3.40
2023-03-15T01:59:43.651Z,3.40
2023-03-15T02:04:01.724Z,3.20
2023-03-15T02:06:29.696Z,3.40
2023-03-15T02:09:01.044Z,3.40
2023-03-15T02:11:37.235Z,3.50
2023-03-15T02:14:06.754Z,3.40
2023-03-15T02:16:34.130Z,3.30
2023-03-15T02:19:01.559Z,3.30
2023-03-15T02:22:07.980Z,3.30
2023-03-15T02:24:47.704Z,3.30
2023-03-15T02:27:15.467Z,3.30
2023-03-15T02:29:42.797Z,3.30
2023-03-15T02:32:10.031Z,3.20
2023-03-15T02:34:37.162Z,3.20
2023-03-15T02:37:04.502Z,3.20
2023-03-15T02:39:32.138Z,3.30
2023-03-15T02:41:59.559Z,3.20
2023-03-15T02:44:35.538Z,3.20
2023-03-15T02:47:25.507Z,3.20
2023-03-15T02:49:56.439Z,3.00
2023-03-15T02:52:24.303Z,3.10
2023-03-15T02:54:51.513Z,3.10
2023-03-15T02:57:19.722Z,3.00
2023-03-15T02:59:51.078Z,3.10
2023-03-15T03:02:19.093Z,3.10
2023-03-15T03:04:46.574Z,3.10
2023-03-15T03:07:14.281Z,3.00
2023-03-15T03:09:41.535Z,3.00
2023-03-15T03:12:08.936Z,3.00
2023-03-15T03:14:36.339Z,3.00
2023-03-15T03:17:03.754Z,3.00
2023-03-15T03:19:31.066Z,3.00
2023-03-15T03:21:58.305Z,3.00
2023-03-15T03:24:26.561Z,3.00
2023-03-15T03:26:58.249Z,3.00
2023-03-15T03:29:26.216Z,3.10
2023-03-15T03:31:53.604Z,3.00
2023-03-15T03:34:20.980Z,3.10
2023-03-15T03:36:51.294Z,3.10
2023-03-15T03:39:18.552Z,3.10
2023-03-15T03:41:45.811Z,3.10
2023-03-15T03:44:13.087Z,3.10
2023-03-15T03:46:40.359Z,3.10
2023-03-15T03:49:07.784Z,3.20
2023-03-15T03:51:35.173Z,3.30
2023-03-15T03:54:02.824Z,3.40
2023-03-15T03:56:31.203Z,3.50
2023-03-15T03:58:58.754Z,3.40
2023-03-15T04:01:26.158Z,3.40
2023-03-15T04:03:53.731Z,3.30
2023-03-15T04:06:22.680Z,3.30
2023-03-15T04:08:50.051Z,3.30
2023-03-15T04:11:18.161Z,3.30
2023-03-15T04:13:45.696Z,3.40
2023-03-15T04:16:14.875Z,3.50
2023-03-15T04:18:42.297Z,3.30
2023-03-15T04:21:11.228Z,3.40
2023-03-15T04:23:39.181Z,3.50
2023-03-15T04:26:06.512Z,3.60
2023-03-15T04:28:33.842Z,3.50
2023-03-15T04:31:01.758Z,3.50
2023-03-15T04:33:29.258Z,3.60
2023-03-15T04:35:58.019Z,3.70
2023-03-15T04:38:27.030Z,3.60
2023-03-15T04:40:55.291Z,3.50
2023-03-15T04:43:24.598Z,3.30
2023-03-15T04:45:52.038Z,3.40
2023-03-15T04:48:19.314Z,3.40
2023-03-15T04:50:46.629Z,3.40
2023-03-15T04:53:13.920Z,3.40
2023-03-15T04:55:41.162Z,3.40
2023-03-15T04:58:08.446Z,3.30
2023-03-15T05:00:35.905Z,3.20
2023-03-15T05:03:03.248Z,3.20
2023-03-15T05:05:33.237Z,3.20
2023-03-15T05:08:01.333Z,3.20
2023-03-15T05:10:30.456Z,3.10
2023-03-15T05:12:58.076Z,3.10
2023-03-15T05:15:25.478Z,3.10
2023-03-15T05:17:55.353Z,3.20
2023-03-15T05:20:23.201Z,3.00
2023-03-15T05:22:50.537Z,3.00
2023-03-15T05:25:18.194Z,3.10
2023-03-15T05:27:46.688Z,3.10
2023-03-15T05:30:15.893Z,3.20
2023-03-15T05:32:44.836Z,3.10
2023-03-15T05:35:14.062Z,3.10
2023-03-15T05:37:42.509Z,3.10
2023-03-15T05:40:10.430Z,3.30
2023-03-15T05:42:38.245Z,3.30
2023-03-15T05:45:05.886Z,3.30
2023-03-15T05:47:34.079Z,3.30
2023-03-15T05:50:01.344Z,3.30
2023-03-15T05:52:28.688Z,3.40
2023-03-15T05:54:55.892Z,3.50
2023-03-15T05:57:23.342Z,3.50
2023-03-15T05:59:50.509Z,3.50
2023-03-15T06:02:17.951Z,3.70
2023-03-15T06:04:45.420Z,3.70
2023-03-15T06:07:12.813Z,3.50
2023-03-15T06:09:40.118Z,3.40
2023-03-15T06:12:07.470Z,3.40
2023-03-15T06:14:34.790Z,3.50
2023-03-15T06:17:02.113Z,3.60
2023-03-15T06:19:29.756Z,3.70
2023-03-15T06:21:57.418Z,3.90
2023-03-15T06:24:25.379Z,4.00
2023-03-15T06:26:55.025Z,4.10
2023-03-15T06:29:23.272Z,3.90
2023-03-15T06:31:50.869Z,4.00
2023-03-15T06:34:18.727Z,4.10
2023-03-15T06:36:45.948Z,4.30
2023-03-15T06:39:13.629Z,4.50
2023-03-15T06:41:41.940Z,5.10
2023-03-15T06:44:09.459Z,5.70
2023-03-15T06:46:37.269Z,6.20
2023-03-15T06:49:04.625Z,6.20
2023-03-15T06:51:31.915Z,6.00
2023-03-15T06:53:59.373Z,6.00
2023-03-15T06:56:26.595Z,6.50
2023-03-15T06:58:53.885Z,6.90
2023-03-15T07:01:21.244Z,6.30
2023-03-15T07:03:48.608Z,7.00
2023-03-15T07:06:15.850Z,7.70
2023-03-15T07:08:43.129Z,8.60
2023-03-15T07:11:10.582Z,9.10
2023-03-15T07:13:37.913Z,9.50
2023-03-15T07:16:05.648Z,9.60
2023-03-15T07:18:34.672Z,9.20
2023-03-15T07:21:05.070Z,9.00
2023-03-15T07:23:32.350Z,9.40
2023-03-15T07:26:00.784Z,9.60
2023-03-15T07:28:28.796Z,9.90
2023-03-15T07:30:58.421Z,9.60
2023-03-15T07:33:27.036Z,9.50
2023-03-15T07:35:54.693Z,8.80
2023-03-15T07:38:24.766Z,8.00
2023-03-15T07:40:52.665Z,8.40
2023-03-15T07:43:21.437Z,8.50
2023-03-15T07:45:48.896Z,8.20
2023-03-15T07:48:16.181Z,7.90
2023-03-15T07:50:43.411Z,8.10
2023-03-15T07:53:10.821Z,8.70
2023-03-15T07:55:38.224Z,8.70
2023-03-15T07:58:06.110Z,8.60
2023-03-15T08:00:33.451Z,9.10
2023-03-15T08:03:00.853Z,9.30
2023-03-15T08:05:29.264Z,9.00
2023-03-15T08:07:57.041Z,8.40
2023-03-15T08:10:24.303Z,8.60
2023-03-15T08:12:51.657Z,8.50
2023-03-15T08:15:20.003Z,8.40
2023-03-15T08:18:00.171Z,8.70
2023-03-15T08:20:29.684Z,8.90
2023-03-15T08:22:57.308Z,8.90
2023-03-15T08:25:25.762Z,8.80
2023-03-15T08:27:53.259Z,9.40
2023-03-15T08:30:21.770Z,9.60
2023-03-15T08:32:51.465Z,8.80
2023-03-15T08:35:21.546Z,9.20
2023-03-15T08:37:49.639Z,9.30
2023-03-15T08:40:25.605Z,9.70
2023-03-15T08:42:54.229Z,10.00
2023-03-15T08:45:24.868Z,10.40
2023-03-15T08:47:59.815Z,11.10
2023-03-15T08:50:28.711Z,11.30
2023-03-15T08:52:55.926Z,11.00
2023-03-15T08:55:23.514Z,11.00
2023-03-15T08:57:51.058Z,10.70
2023-03-15T09:00:27.309Z,10.20
2023-03-15T09:02:55.384Z,10.00
2023-03-15T09:05:24.881Z,10.40
2023-03-15T09:07:55.884Z,11.40
2023-03-15T09:10:23.685Z,12.50
2023-03-15T09:12:54.149Z,12.70
2023-03-15T09:15:22.099Z,12.40
2023-03-15T09:17:51.937Z,11.40
2023-03-15T09:20:22.593Z,10.90
2023-03-15T09:22:55.334Z,11.70
2023-03-15T09:25:23.573Z,11.70
2023-03-15T09:27:51.149Z,13.10
2023-03-15T09:30:19.169Z,12.00
2023-03-15T09:32:46.861Z,13.30
2023-03-15T09:35:17.370Z,17.00
2023-03-15T09:37:45.217Z,20.00
2023-03-15T09:40:32.323Z,15.80
2023-03-15T09:43:12.124Z,13.60
2023-03-15T09:46:00.344Z,13.60
2023-03-15T09:49:19.564Z,16.40
2023-03-15T09:52:02.053Z,13.80
2023-03-15T09:54:46.662Z,12.50
2023-03-15T09:57:25.817Z,12.50
2023-03-15T09:59:54.613Z,17.00
2023-03-15T10:02:31.411Z,15.90
2023-03-15T10:05:06.393Z,16.40
2023-03-15T10:07:35.992Z,15.80
2023-03-15T10:10:05.149Z,18.10
2023-03-15T10:12:42.988Z,17.70
2023-03-15T10:15:28.579Z,15.70
2023-03-15T10:17:58.721Z,13.80
2023-03-15T10:20:29.679Z,14.20
2023-03-15T10:22:59.784Z,14.60
2023-03-15T10:25:29.514Z,14.70
2023-03-15T10:28:05.782Z,13.00
2023-03-15T10:30:35.618Z,12.40
2023-03-15T10:33:12.601Z,12.60
2023-03-15T10:35:40.251Z,12.50
2023-03-15T10:38:20.682Z,13.10
2023-03-15T10:40:48.150Z,13.60
2023-03-15T10:43:23.025Z,13.10
2023-03-15T10:46:11.955Z,12.10
2023-03-15T10:48:40.480Z,11.90
2023-03-15T10:51:16.052Z,12.60
2023-03-15T10:53:58.896Z,12.80
2023-03-15T10:56:28.875Z,12.20
2023-03-15T10:59:11.549Z,12.90
2023-03-15T11:01:40.396Z,13.10
2023-03-15T11:04:14.884Z,13.60
2023-03-15T11:06:49.643Z,13.50
2023-03-15T11:09:28.009Z,14.30
2023-03-15T11:12:08.944Z,15.10
2023-03-15T11:14:40.647Z,16.10
2023-03-15T11:17:18.523Z,16.40
2023-03-15T11:19:57.212Z,16.00
2023-03-15T11:22:25.119Z,15.90
2023-03-15T11:24:56.803Z,15.90
2023-03-15T11:27:25.816Z,16.30
2023-03-15T11:29:58.498Z,16.10
2023-03-15T11:32:29.078Z,15.40
2023-03-15T11:35:09.455Z,14.40
2023-03-15T11:37:49.129Z,14.40
2023-03-15T11:40:22.735Z,14.50
2023-03-15T11:42:57.940Z,13.90
2023-03-15T11:46:02.278Z,14.40
2023-03-15T11:48:41.074Z,17.50
2023-03-15T11:51:10.731Z,18.60
2023-03-15T11:54:01.226Z,21.30
2023-03-15T11:56:45.325Z,21.80
2023-03-15T11:59:34.152Z,21.90
2023-03-15T12:02:22.038Z,22.10
2023-03-15T12:04:54.722Z,21.20
2023-03-15T12:07:24.655Z,20.40
2023-03-15T12:09:53.178Z,19.60
2023-03-15T12:12:27.100Z,18.70
2023-03-15T12:15:05.555Z,17.10
2023-03-15T12:17:32.879Z,15.30
2023-03-15T12:20:12.489Z,14.90
2023-03-15T12:22:50.462Z,14.40
2023-03-15T12:25:23.432Z,15.10
2023-03-15T12:27:54.506Z,15.40
2023-03-15T12:30:30.477Z,15.10
2023-03-15T12:32:58.171Z,13.90
2023-03-15T12:35:32.911Z,13.50
2023-03-15T12:38:01.830Z,13.90
2023-03-15T12:40:35.400Z,14.30
2023-03-15T12:43:02.718Z,14.50
2023-03-15T12:45:38.464Z,14.20
2023-03-15T12:48:13.065Z,13.40
2023-03-15T12:50:47.212Z,13.60
2023-03-15T12:53:23.360Z,13.20
2023-03-15T12:56:02.703Z,13.30
2023-03-15T12:58:37.111Z,13.30
2023-03-15T13:01:07.938Z,12.80
2023-03-15T13:03:36.426Z,12.80
2023-03-15T13:06:08.750Z,13.40
2023-03-15T13:09:30.193Z,13.20
2023-03-15T13:12:12.596Z,12.80
2023-03-15T13:14:47.146Z,13.10
2023-03-15T13:17:41.750Z,13.90
2023-03-15T13:20:24.543Z,13.30
2023-03-15T13:23:18.244Z,13.00
2023-03-15T13:25:52.159Z,13.30
2023-03-15T13:28:37.621Z,13.30
2023-03-15T13:31:16.021Z,12.60
2023-03-15T13:33:48.216Z,12.80
2023-03-15T13:36:19.490Z,13.90
2023-03-15T13:38:50.857Z,14.30
2023-03-15T13:41:33.049Z,14.10
2023-03-15T13:44:05.826Z,14.00
2023-03-15T13:46:33.544Z,13.60
2023-03-15T13:49:01.488Z,13.30
2023-03-15T13:51:31.112Z,13.00
2023-03-15T13:54:17.556Z,12.60
2023-03-15T13:56:58.363Z,12.00
2023-03-15T14:00:10.517Z,10.90
2023-03-15T14:02:47.143Z,10.60
2023-03-15T14:05:19.643Z,10.80
2023-03-15T14:07:51.368Z,11.10
2023-03-15T14:10:50.849Z,11.20
2023-03-15T14:13:26.162Z,11.00
2023-03-15T14:16:02.355Z,11.00
2023-03-15T14:18:39.186Z,10.80
2023-03-15T14:21:31.737Z,10.70
2023-03-15T14:24:06.488Z,10.50
2023-03-15T14:26:36.315Z,10.20
2023-03-15T14:29:16.059Z,10.10
2023-03-15T14:31:49.478Z,9.90
2023-03-15T14:34:37.152Z,9.90
2023-03-15T14:37:10.320Z,10.00
2023-03-15T14:39:40.456Z,10.20
2023-03-15T14:42:11.639Z,10.40
2023-03-15T14:44:39.193Z,10.60
2023-03-15T14:47:16.705Z,10.50
2023-03-15T14:49:44.417Z,10.50
2023-03-15T14:52:13.584Z,10.70
2023-03-15T14:54:47.432Z,10.70
2023-03-15T14:57:14.687Z,10.20
2023-03-15T14:59:41.855Z,9.50
2023-03-15T15:02:17.372Z,9.50
2023-03-15T15:04:48.288Z,9.30
2023-03-15T15:07:15.808Z,9.30
2023-03-15T15:09:50.093Z,9.20
2023-03-15T15:12:19.165Z,9.30
2023-03-15T15:14:46.502Z,9.40
2023-03-15T15:17:13.708Z,9.90
2023-03-15T15:19:40.882Z,10.00
2023-03-15T15:22:11.435Z,9.70
2023-03-15T15:24:38.711Z,9.50
2023-03-15T15:27:05.920Z,9.40
2023-03-15T15:29:33.174Z,9.40
2023-03-15T15:32:00.538Z,9.20
2023-03-15T15:34:27.913Z,9.20
2023-03-15T15:36:55.904Z,9.00
2023-03-15T15:39:27.800Z,8.80
2023-03-15T15:41:55.373Z,8.60
2023-03-15T15:44:27.080Z,8.60
2023-03-15T15:46:54.410Z,8.60
2023-03-15T15:49:21.683Z,8.40
2023-03-15T15:51:50.155Z,8.40
2023-03-15T15:54:36.317Z,8.40
2023-03-15T15:57:04.759Z,8.20
2023-03-15T15:59:32.190Z,8.10
2023-03-15T16:02:01.517Z,8.10
2023-03-15T16:04:29.938Z,8.00
2023-03-15T16:07:01.873Z,8.00
2023-03-15T16:09:31.975Z,8.00
2023-03-15T16:11:59.376Z,8.00
2023-03-15T16:14:26.634Z,7.80
2023-03-15T16:16:53.960Z,7.80
2023-03-15T16:19:21.365Z,7.80
2023-03-15T16:21:51.906Z,7.80
2023-03-15T16:24:22.305Z,7.70
2023-03-15T16:26:50.788Z,7.60
2023-03-15T16:29:21.292Z,7.50
2023-03-15T16:31:49.672Z,7.50
2023-03-15T16:34:18.845Z,7.50
2023-03-15T16:36:49.554Z,7.60
2023-03-15T16:39:17.555Z,7.70
2023-03-15T16:41:44.773Z,7.40
2023-03-15T16:44:18.347Z,7.40
2023-03-15T16:46:45.827Z,7.40
2023-03-15T16:49:15.544Z,7.30
2023-03-15T16:51:47.674Z,7.10
2023-03-15T16:54:27.216Z,7.20
2023-03-15T16:56:59.749Z,7.20
2023-03-15T16:59:27.720Z,7.20
2023-03-15T17:01:55.226Z,7.20
2023-03-15T17:04:22.558Z,7.10
2023-03-15T17:09:23.740Z,7.10
2023-03-15T17:11:52.589Z,7.10
2023-03-15T17:14:25.876Z,6.90
2023-03-15T17:16:53.400Z,6.80
2023-03-15T17:19:21.175Z,6.70
2023-03-15T17:21:48.393Z,6.60
2023-03-15T17:24:15.909Z,6.50
2023-03-15T17:26:43.445Z,6.50
2023-03-15T17:29:15.122Z,6.50
2023-03-15T17:31:44.713Z,6.40
2023-03-15T17:34:12.158Z,6.40
2023-03-15T17:36:41.190Z,6.30
2023-03-15T17:39:12.603Z,6.30
2023-03-15T17:41:43.028Z,6.30
2023-03-15T17:44:11.017Z,6.20
2023-03-15T17:46:38.357Z,6.10
2023-03-15T17:49:07.397Z,6.10
2023-03-15T17:51:36.552Z,6.20
2023-03-15T17:54:13.189Z,6.20
2023-03-15T17:56:41.018Z,6.30
2023-03-15T17:59:11.648Z,6.40
2023-03-15T18:01:42.936Z,6.40
2023-03-15T18:04:14.975Z,6.50
2023-03-15T18:06:42.813Z,6.50
2023-03-15T18:09:12.483Z,6.50
2023-03-15T18:11:42.749Z,6.60
2023-03-15T18:14:14.687Z,6.70
2023-03-15T18:16:43.861Z,6.80
2023-03-15T18:19:12.855Z,6.70
2023-03-15T18:21:40.785Z,6.50
2023-03-15T18:24:11.388Z,6.50
2023-03-15T18:26:38.678Z,6.40
2023-03-15T18:29:06.569Z,6.30
2023-03-15T18:31:35.177Z,6.30
2023-03-15T18:34:03.775Z,6.10
2023-03-15T18:36:31.824Z,6.00
2023-03-15T18:38:59.448Z,6.10
2023-03-15T18:41:27.138Z,6.10
2023-03-15T18:43:54.410Z,6.20
2023-03-15T18:46:27.267Z,6.10
2023-03-15T18:48:54.767Z,6.10
2023-03-15T18:51:25.823Z,6.30
2023-03-15T18:53:53.120Z,6.40
2023-03-15T18:56:26.239Z,6.50
2023-03-15T18:58:54.473Z,6.70
2023-03-15T19:01:23.047Z,6.70
2023-03-15T19:03:51.396Z,6.50
2023-03-15T19:06:19.309Z,6.50
2023-03-15T19:08:46.807Z,6.60
2023-03-15T19:11:14.051Z,6.60
2023-03-15T19:13:41.319Z,6.50
2023-03-15T19:16:09.134Z,6.40
2023-03-15T19:18:36.529Z,6.50
2023-03-15T19:21:06.871Z,6.40
2023-03-15T19:23:34.783Z,6.40
2023-03-15T19:26:01.995Z,6.30
2023-03-15T19:28:30.909Z,6.50
2023-03-15T19:31:40.069Z,6.60
2023-03-15T19:34:07.475Z,6.70
2023-03-15T19:36:34.601Z,6.60
2023-03-15T19:39:03.853Z,6.60
2023-03-15T19:41:30.992Z,6.60
2023-03-15T19:43:58.200Z,6.60
2023-03-15T19:49:34.919Z,6.50
2023-03-15T19:52:02.830Z,6.40
2023-03-15T19:54:34.094Z,6.20
2023-03-15T19:57:01.850Z,6.00
2023-03-15T19:59:29.158Z,5.90
2023-03-15T20:01:56.415Z,5.90
2023-03-15T20:04:23.738Z,5.90
2023-03-15T20:06:51.152Z,5.80
2023-03-15T20:09:18.524Z,5.80
2023-03-15T20:11:45.728Z,5.80
2023-03-15T20:14:13.125Z,5.60
2023-03-15T20:16:40.337Z,5.50
2023-03-15T20:19:07.534Z,5.50
2023-03-15T20:21:34.693Z,5.50
2023-03-15T20:24:01.953Z,5.50
2023-03-15T20:26:31.456Z,5.50
2023-03-15T20:28:58.997Z,5.40
2023-03-15T20:31:26.423Z,5.30
2023-03-15T20:33:54.089Z,5.30
2023-03-15T20:36:22.126Z,5.10
2023-03-15T20:38:49.388Z,5.00
2023-03-15T20:41:18.484Z,5.00
2023-03-15T20:43:47.155Z,4.90
2023-03-15T20:46:16.838Z,4.80
2023-03-15T20:48:44.626Z,4.80
2023-03-15T20:51:12.168Z,4.70
2023-03-15T20:53:39.555Z,4.70
2023-03-15T20:56:07.216Z,4.70
2023-03-15T20:58:34.451Z,4.70
2023-03-15T21:01:09.938Z,4.70
2023-03-15T21:03:37.573Z,4.60
2023-03-15T21:06:06.278Z,4.60
2023-03-15T21:08:34.815Z,4.60
2023-03-15T21:11:03.593Z,4.70
2023-03-15T21:13:31.084Z,4.70
2023-03-15T21:15:59.222Z,4.60
2023-03-15T21:18:27.113Z,4.60
2023-03-15T21:21:01.609Z,4.60
2023-03-15T21:23:31.718Z,4.50
2023-03-15T21:26:09.800Z,4.50
2023-03-15T21:28:37.614Z,4.40
2023-03-15T21:31:06.126Z,4.30
2023-03-15T21:33:33.936Z,4.30
2023-03-15T21:36:01.455Z,4.20
2023-03-15T21:38:31.609Z,4.10
2023-03-15T21:40:59.770Z,4.10
2023-03-15T21:43:32.049Z,4.10
2023-03-15T21:46:01.423Z,4.00
2023-03-15T21:48:29.419Z,4.20
2023-03-15T21:50:57.044Z,4.20
2023-03-15T21:53:24.373Z,4.20
2023-03-15T21:55:56.105Z,4.10
2023-03-15T21:58:24.180Z,4.10
2023-03-15T22:01:04.752Z,4.00
2023-03-15T22:03:33.181Z,4.10
2023-03-15T22:06:01.046Z,3.90
2023-03-15T22:08:28.561Z,4.10
2023-03-15T22:10:57.972Z,4.10
2023-03-15T22:13:26.261Z,4.20
2023-03-15T22:15:53.715Z,4.20
2023-03-15T22:18:21.978Z,4.20
2023-03-15T22:20:51.181Z,4.20
2023-03-15T22:23:18.930Z,4.10
2023-03-15T22:25:46.306Z,4.20
2023-03-15T22:28:13.964Z,4.20
2023-03-15T22:30:42.270Z,4.20
2023-03-15T22:33:09.889Z,4.30
2023-03-15T22:35:37.126Z,4.30
2023-03-15T22:38:10.409Z,4.30
2023-03-15T22:40:39.651Z,4.40
2023-03-15T22:43:08.282Z,4.50
2023-03-15T22:45:36.002Z,4.40
2023-03-15T22:48:03.456Z,4.50
2023-03-15T22:50:31.519Z,4.50
2023-03-15T22:52:58.779Z,4.70
2023-03-15T22:55:26.148Z,4.70
2023-03-15T22:57:54.159Z,4.70
2023-03-15T23:00:22.729Z,4.50
2023-03-15T23:02:51.120Z,4.40
2023-03-15T23:05:19.838Z,4.40
2023-03-15T23:07:47.627Z,4.30
2023-03-15T23:10:15.522Z,4.30
2023-03-15T23:12:43.298Z,4.10
2023-03-15T23:15:13.439Z,4.10
2023-03-15T23:17:46.141Z,4.10
2023-03-15T23:20:18.922Z,4.10
2023-03-15T23:22:47.488Z,4.10
2023-03-15T23:25:17.611Z,4.00
2023-03-15T23:27:44.897Z,4.00
2023-03-15T23:30:12.921Z,4.00
2023-03-15T23:32:40.249Z,3.90
2023-03-15T23:35:09.482Z,3.90
2023-03-15T23:37:36.689Z,3.90
2023-03-15T23:40:11.437Z,4.00
2023-03-15T23:42:39.120Z,3.90
2023-03-15T23:45:06.905Z,3.90
2023-03-15T23:47:34.345Z,3.90
2023-03-15T23:50:02.533Z,3.80
2023-03-15T23:52:29.929Z,3.80
2023-03-15T23:54:57.795Z,3.80
2023-03-15T23:57:25.341Z,3.80
2023-03-15T23:59:53.729Z,3.70
